Time;durP1;ratioP1;P1;durP2;ratioP2;P2;SDS_P1;SDS_P2;PMS_P1;PMS_P2;Temp;Humidity;BMP_temperature;BMP_pressure;BME280_temperature;BME280_humidity;BME280_pressure;Samples;Min_cycle;Max_cycle;Signal;HPM_P1;HPM_P2
2022/06/26 00:02:10;;;;;;;0.50;0.50;;;18.40;78.40;;;;;;5091900;28;20130;-72
2022/06/26 00:04:36;;;;;;;0.70;0.70;;;18.50;78.50;;;;;;5091959;28;20036;-72
2022/06/26 00:07:03;;;;;;;0.85;0.77;;;18.30;78.50;;;;;;5091414;28;20515;-72
2022/06/26 00:09:29;;;;;;;0.65;0.60;;;18.40;78.50;;;;;;5091457;28;20102;-72
2022/06/26 00:11:55;;;;;;;0.55;0.55;;;18.40;78.60;;;;;;5092028;28;20127;-72
2022/06/26 00:14:21;;;;;;;0.73;0.73;;;18.30;78.60;;;;;;5056293;28;20044;-73
2022/06/26 00:16:47;;;;;;;0.60;0.60;;;18.40;78.70;;;;;;5091528;28;20382;-72
2022/06/26 00:19:12;;;;;;;1.13;0.80;;;18.40;78.80;;;;;;5073544;28;20046;-72
2022/06/26 00:21:38;;;;;;;0.73;0.73;;;18.40;78.90;;;;;;5060287;28;20086;-72
2022/06/26 00:24:04;;;;;;;0.68;0.68;;;18.40;78.90;;;;;;5076909;28;20035;-72
2022/06/26 00:26:30;;;;;;;0.60;0.60;;;18.40;78.90;;;;;;5095255;28;20044;-72
2022/06/26 00:28:55;;;;;;;0.60;0.60;;;18.40;79.00;;;;;;5095127;28;20093;-72
2022/06/26 00:31:21;;;;;;;0.60;0.60;;;18.40;79.00;;;;;;5095207;28;20067;-72
2022/06/26 00:33:47;;;;;;;0.80;0.80;;;18.40;79.10;;;;;;5094741;28;20032;-71
2022/06/26 00:36:13;;;;;;;0.50;0.50;;;18.40;79.10;;;;;;5094843;28;20036;-71
2022/06/26 00:38:38;;;;;;;0.73;0.70;;;18.50;79.10;;;;;;5094540;28;20090;-72
2022/06/26 00:41:05;;;;;;;1.02;0.93;;;18.50;79.10;;;;;;5094995;28;20126;-71
2022/06/26 00:43:31;;;;;;;0.45;0.45;;;18.50;79.20;;;;;;5094700;28;20036;-72
2022/06/26 00:45:57;;;;;;;0.60;0.60;;;18.40;79.20;;;;;;5094555;28;20047;-72
2022/06/26 00:48:23;;;;;;;1.00;0.90;;;18.40;79.40;;;;;;5094575;28;20093;-72
2022/06/26 00:50:51;;;;;;;0.73;0.60;;;18.40;79.40;;;;;;5076470;28;20374;-72
2022/06/26 00:53:17;;;;;;;0.40;0.40;;;18.40;79.50;;;;;;5076437;28;20428;-73
2022/06/26 00:55:43;;;;;;;0.77;0.70;;;18.50;79.60;;;;;;5094477;28;20431;-73
2022/06/26 00:58:09;;;;;;;0.63;0.63;;;18.50;79.70;;;;;;5076681;28;20071;-73
2022/06/26 01:00:35;;;;;;;0.68;0.68;;;18.50;79.70;;;;;;5094171;28;20404;-73
2022/06/26 01:03:00;;;;;;;0.60;0.60;;;18.50;79.70;;;;;;5094304;28;20040;-73
2022/06/26 01:05:27;;;;;;;0.75;0.65;;;18.40;79.70;;;;;;5094474;28;20462;-73
2022/06/26 01:07:53;;;;;;;0.60;0.60;;;18.40;79.80;;;;;;5076040;28;20036;-73
2022/06/26 01:10:19;;;;;;;0.77;0.70;;;18.40;79.80;;;;;;5094117;28;20040;-73
2022/06/26 01:12:45;;;;;;;0.88;0.88;;;18.50;80.00;;;;;;5094119;28;20447;-73
2022/06/26 01:15:11;;;;;;;0.73;0.73;;;18.40;80.00;;;;;;5076111;28;20077;-73
2022/06/26 01:17:37;;;;;;;0.90;0.80;;;18.40;80.00;;;;;;5094483;28;20036;-73
2022/06/26 01:20:05;;;;;;;0.60;0.60;;;18.40;80.10;;;;;;5094075;28;20177;-74
2022/06/26 01:22:31;;;;;;;0.60;0.52;;;18.40;80.10;;;;;;5094077;28;20109;-73
2022/06/26 01:24:57;;;;;;;0.60;0.60;;;18.40;80.10;;;;;;5059577;28;20052;-73
2022/06/26 01:27:22;;;;;;;0.80;0.77;;;18.40;80.20;;;;;;5094811;28;20071;-74
2022/06/26 01:29:48;;;;;;;0.73;0.65;;;18.40;80.20;;;;;;5076476;28;20036;-75
2022/06/26 01:32:14;;;;;;;0.52;0.52;;;18.40;80.30;;;;;;5094328;28;20040;-75
2022/06/26 01:34:40;;;;;;;0.52;0.52;;;18.40;80.40;;;;;;5094920;28;20089;-74
2022/06/26 01:37:06;;;;;;;0.77;0.73;;;18.40;80.50;;;;;;5094139;28;20044;-74
2022/06/26 01:39:31;;;;;;;1.88;0.80;;;18.40;80.60;;;;;;5093963;28;20084;-75
2022/06/26 01:41:57;;;;;;;0.80;0.80;;;18.40;80.60;;;;;;5093857;28;20058;-74
2022/06/26 01:44:23;;;;;;;0.70;0.70;;;18.30;80.70;;;;;;5076323;28;20051;-74
2022/06/26 01:46:48;;;;;;;0.50;0.50;;;18.30;80.80;;;;;;5094408;28;20092;-75
2022/06/26 01:49:14;;;;;;;0.55;0.55;;;18.40;80.90;;;;;;5094252;28;20134;-75
2022/06/26 01:51:40;;;;;;;1.88;0.65;;;18.20;81.60;;;;;;5093621;28;20040;-74
2022/06/26 01:54:06;;;;;;;0.60;0.60;;;18.20;81.00;;;;;;5094050;28;20469;-74
2022/06/26 01:56:31;;;;;;;1.05;0.75;;;18.20;81.10;;;;;;5093926;28;20036;-74
2022/06/26 01:58:57;;;;;;;0.70;0.70;;;18.20;81.20;;;;;;5093127;28;20046;-75
2022/06/26 02:01:23;;;;;;;0.82;0.82;;;18.20;81.30;;;;;;5093297;28;20062;-75
2022/06/26 02:03:49;;;;;;;0.80;0.80;;;18.20;81.30;;;;;;5075656;28;20043;-74
2022/06/26 02:06:14;;;;;;;0.88;0.80;;;18.20;81.40;;;;;;5075366;28;20115;-74
2022/06/26 02:08:40;;;;;;;0.95;0.68;;;18.20;81.40;;;;;;5093591;28;20563;-75
2022/06/26 02:13:45;;;;;;;0.57;0.57;;;18.20;81.50;;;;;;5093350;28;20493;-74
2022/06/26 02:16:22;;;;;;;0.60;0.60;;;18.20;81.50;;;;;;5076259;28;20052;-74
2022/06/26 02:18:50;;;;;;;0.80;0.80;;;18.20;81.60;;;;;;5091329;28;20068;-75
2022/06/26 02:21:19;;;;;;;0.50;0.50;;;18.10;81.60;;;;;;5077226;28;20067;-74
2022/06/26 02:23:46;;;;;;;1.00;0.90;;;18.10;81.70;;;;;;5095622;28;20097;-75
2022/06/26 02:26:12;;;;;;;1.52;1.15;;;18.10;81.70;;;;;;5074973;28;20044;-75
2022/06/26 02:28:39;;;;;;;0.93;0.85;;;18.10;81.70;;;;;;5075357;28;20032;-74
2022/06/26 02:31:05;;;;;;;0.77;0.77;;;18.10;81.80;;;;;;5090988;28;20169;-75
2022/06/26 02:33:32;;;;;;;0.88;0.80;;;18.00;81.90;;;;;;5092879;28;20050;-75
2022/06/26 02:35:59;;;;;;;0.82;0.82;;;18.00;82.00;;;;;;5075026;28;20043;-75
2022/06/26 02:38:25;;;;;;;0.70;0.70;;;18.00;82.00;;;;;;5093008;28;20036;-75
2022/06/26 02:40:52;;;;;;;0.80;0.80;;;18.00;82.00;;;;;;5092409;28;20075;-75
2022/06/26 02:43:18;;;;;;;0.98;0.70;;;18.00;82.00;;;;;;5073551;28;20119;-74
2022/06/26 02:45:45;;;;;;;0.68;0.65;;;18.00;82.00;;;;;;5093039;28;20047;-74
2022/06/26 02:48:11;;;;;;;0.68;0.68;;;18.10;82.10;;;;;;5074984;28;20040;-75
2022/06/26 02:50:37;;;;;;;0.77;0.77;;;18.00;82.10;;;;;;5093009;28;20496;-75
2022/06/26 02:53:04;;;;;;;0.68;0.65;;;18.00;82.10;;;;;;5093150;28;20123;-74
2022/06/26 02:55:31;;;;;;;0.90;0.80;;;18.00;82.20;;;;;;5092690;28;20066;-74
2022/06/26 02:57:57;;;;;;;0.60;0.60;;;17.90;82.10;;;;;;5092688;28;20401;-75
2022/06/26 03:00:22;;;;;;;0.80;0.80;;;17.90;82.20;;;;;;5092783;28;20047;-74
2022/06/26 03:02:48;;;;;;;1.00;0.90;;;17.90;82.30;;;;;;5093405;28;20043;-73
2022/06/26 03:05:18;;;;;;;0.98;0.98;;;17.90;82.40;;;;;;5074597;28;20489;-74
2022/06/26 03:07:44;;;;;;;0.88;0.85;;;17.80;82.50;;;;;;5074648;28;20147;-74
2022/06/26 03:10:10;;;;;;;1.08;0.98;;;17.70;82.50;;;;;;5092676;28;20073;-74
2022/06/26 03:12:49;;;;;;;1.52;0.95;;;17.70;82.60;;;;;;5092472;28;20032;-74
2022/06/26 03:15:16;;;;;;;1.17;0.90;;;17.70;82.80;;;;;;5073286;28;20512;-74
2022/06/26 03:17:42;;;;;;;1.67;1.20;;;17.60;82.70;;;;;;5074603;28;20051;-74
2022/06/26 03:20:11;;;;;;;1.20;1.10;;;17.60;82.70;;;;;;5092627;28;20044;-74
2022/06/26 03:22:36;;;;;;;0.82;0.82;;;17.60;82.80;;;;;;5074900;28;20492;-74
2022/06/26 03:25:04;;;;;;;0.80;0.80;;;17.60;82.90;;;;;;5092878;28;20032;-74
2022/06/26 03:27:29;;;;;;;1.90;1.27;;;17.60;82.90;;;;;;5057679;28;20497;-74
2022/06/26 03:29:55;;;;;;;0.98;0.90;;;17.60;82.90;;;;;;5092144;28;20036;-74
2022/06/26 03:32:21;;;;;;;1.77;1.33;;;17.60;82.90;;;;;;5074526;28;20036;-74
2022/06/26 03:34:47;;;;;;;1.58;1.30;;;17.60;83.00;;;;;;5092281;28;20044;-74
2022/06/26 03:37:13;;;;;;;1.27;1.05;;;17.50;83.00;;;;;;5074057;28;20039;-74
2022/06/26 03:39:38;;;;;;;2.45;1.48;;;17.60;83.10;;;;;;5074074;28;20124;-74
2022/06/26 03:42:04;;;;;;;1.60;1.30;;;17.50;83.00;;;;;;5091981;28;20143;-74
2022/06/26 03:44:31;;;;;;;1.52;1.20;;;17.50;83.00;;;;;;5092094;28;20052;-74
2022/06/26 03:46:57;;;;;;;1.45;1.10;;;17.50;83.00;;;;;;5074364;28;20045;-73
2022/06/26 03:49:24;;;;;;;1.10;1.00;;;17.50;83.00;;;;;;5091737;28;20257;-74
2022/06/26 03:51:50;;;;;;;2.03;1.48;;;17.50;83.00;;;;;;5092336;28;20377;-74
2022/06/26 03:54:18;;;;;;;1.02;0.93;;;17.50;83.00;;;;;;5057570;28;20100;-74
2022/06/26 03:56:43;;;;;;;1.13;0.95;;;17.50;83.10;;;;;;5093545;28;20127;-75
2022/06/26 03:59:09;;;;;;;1.95;1.40;;;17.50;83.10;;;;;;5095427;28;20193;-74
2022/06/26 04:01:35;;;;;;;1.48;1.23;;;17.50;83.10;;;;;;5060868;28;20067;-74
2022/06/26 04:04:01;;;;;;;1.42;1.23;;;17.50;83.20;;;;;;5095552;28;20051;-75
2022/06/26 04:06:26;;;;;;;1.52;1.20;;;17.50;83.20;;;;;;5095747;28;20373;-74
2022/06/26 04:08:52;;;;;;;2.33;1.55;;;17.50;83.20;;;;;;5077393;28;20086;-74
2022/06/26 04:11:18;;;;;;;2.90;1.50;;;17.50;83.20;;;;;;5095361;28;20050;-74
2022/06/26 04:13:44;;;;;;;2.42;1.77;;;17.40;83.20;;;;;;5061224;28;20036;-74
2022/06/26 04:16:10;;;;;;;2.67;1.52;;;17.40;83.20;;;;;;5096009;28;20371;-74
2022/06/26 04:18:36;;;;;;;2.42;1.67;;;17.40;83.30;;;;;;5060390;28;20036;-74
2022/06/26 04:21:02;;;;;;;2.80;1.83;;;17.40;83.40;;;;;;5095187;28;20135;-74
2022/06/26 04:23:28;;;;;;;2.47;1.70;;;17.30;83.40;;;;;;5095378;28;20043;-74
2022/06/26 04:25:53;;;;;;;3.05;1.70;;;17.30;83.40;;;;;;5077080;28;20044;-74
2022/06/26 04:28:19;;;;;;;2.22;1.45;;;17.30;83.40;;;;;;5095671;28;20043;-74
2022/06/26 04:30:45;;;;;;;3.30;1.80;;;17.30;83.50;;;;;;5077816;28;20036;-74
2022/06/26 04:33:11;;;;;;;3.22;2.05;;;17.30;83.50;;;;;;5095447;28;20499;-74
2022/06/26 04:35:36;;;;;;;2.85;1.80;;;17.30;83.50;;;;;;5095115;28;20395;-74
2022/06/26 04:38:03;;;;;;;2.25;1.55;;;17.20;83.60;;;;;;5095081;28;20032;-74
2022/06/26 04:40:29;;;;;;;1.52;1.10;;;17.20;83.60;;;;;;5094759;28;20028;-74
2022/06/26 04:42:55;;;;;;;1.48;1.23;;;17.10;83.70;;;;;;5095257;28;20101;-74
2022/06/26 04:45:28;;;;;;;2.10;1.52;;;17.10;83.70;;;;;;5076734;28;20402;-74
2022/06/26 04:47:54;;;;;;;1.25;1.10;;;17.10;83.70;;;;;;5094986;28;20135;-74
2022/06/26 04:50:19;;;;;;;1.25;1.15;;;17.10;83.70;;;;;;5076984;28;20139;-74
2022/06/26 04:52:47;;;;;;;2.65;1.50;;;17.10;84.20;;;;;;5076783;28;20051;-74
2022/06/26 04:55:13;;;;;;;2.17;1.50;;;17.10;83.60;;;;;;5077010;28;20185;-74
2022/06/26 04:57:39;;;;;;;1.70;1.48;;;17.10;83.60;;;;;;5095175;28;20515;-73
2022/06/26 05:00:08;;;;;;;2.03;1.20;;;17.10;83.60;;;;;;5095915;28;20044;-74
2022/06/26 05:02:36;;;;;;;1.88;1.58;;;17.10;83.60;;;;;;5077177;28;20101;-74
2022/06/26 05:05:02;;;;;;;3.38;1.60;;;17.10;83.60;;;;;;5094549;28;20048;-74
2022/06/26 05:07:28;;;;;;;1.80;1.35;;;17.10;83.60;;;;;;5075544;28;20095;-73
2022/06/26 05:09:54;;;;;;;2.45;1.60;;;17.00;83.50;;;;;;5076837;28;20499;-74
2022/06/26 05:12:19;;;;;;;2.15;1.58;;;17.00;83.50;;;;;;5094532;28;20078;-74
2022/06/26 05:14:45;;;;;;;2.47;1.60;;;17.00;83.60;;;;;;5094771;28;20513;-74
2022/06/26 05:17:11;;;;;;;2.72;1.90;;;17.00;83.60;;;;;;5076492;28;20040;-74
2022/06/26 05:19:37;;;;;;;2.38;1.60;;;17.00;83.50;;;;;;5076290;28;20059;-74
2022/06/26 05:22:03;;;;;;;1.75;1.30;;;17.00;83.60;;;;;;5094890;28;20054;-74
2022/06/26 05:24:29;;;;;;;2.03;1.58;;;17.00;83.60;;;;;;5076222;28;20058;-74
2022/06/26 05:26:56;;;;;;;2.42;1.70;;;17.00;83.60;;;;;;5076072;28;20047;-73
2022/06/26 05:29:23;;;;;;;2.63;1.75;;;17.00;83.50;;;;;;5092469;28;20085;-73
2022/06/26 05:31:50;;;;;;;2.33;1.73;;;16.90;83.50;;;;;;5076151;28;20545;-73
2022/06/26 05:34:16;;;;;;;2.55;1.63;;;17.00;83.50;;;;;;5076588;28;20040;-74
2022/06/26 05:36:42;;;;;;;2.60;1.67;;;16.90;83.50;;;;;;5059845;28;20039;-74
2022/06/26 05:39:08;;;;;;;2.67;1.90;;;16.90;83.60;;;;;;5094483;28;20074;-74
2022/06/26 05:41:33;;;;;;;2.40;1.30;;;16.90;83.70;;;;;;5076397;28;20459;-75
2022/06/26 05:43:59;;;;;;;2.17;1.63;;;16.90;83.80;;;;;;5075660;28;20123;-74
2022/06/26 05:46:25;;;;;;;2.67;1.80;;;16.90;83.70;;;;;;5094086;28;20493;-75
2022/06/26 05:48:51;;;;;;;3.38;1.70;;;17.10;83.60;;;;;;5076090;28;20032;-74
2022/06/26 05:51:17;;;;;;;3.83;1.70;;;17.00;83.50;;;;;;5093873;28;20036;-75
2022/06/26 05:53:43;;;;;;;1.92;1.33;;;17.10;83.40;;;;;;5094669;28;20389;-75
2022/06/26 05:56:08;;;;;;;2.47;1.60;;;17.20;83.30;;;;;;5094574;28;20557;-73
2022/06/26 05:58:34;;;;;;;2.25;1.23;;;17.20;83.00;;;;;;5094211;28;20059;-74
2022/06/26 06:01:00;;;;;;;2.00;1.23;;;17.20;82.90;;;;;;5076255;28;20093;-74
2022/06/26 06:03:25;;;;;;;1.63;1.40;;;17.30;82.90;;;;;;5093663;28;20394;-75
2022/06/26 06:05:51;;;;;;;1.88;1.20;;;17.30;82.90;;;;;;5075494;28;20047;-74
2022/06/26 06:08:17;;;;;;;2.33;1.50;;;17.40;82.80;;;;;;5094161;28;20036;-75
2022/06/26 06:10:43;;;;;;;2.97;1.55;;;17.40;82.70;;;;;;5075965;28;20539;-75
2022/06/26 06:13:09;;;;;;;1.42;1.30;;;17.50;82.50;;;;;;5094155;28;20089;-75
2022/06/26 06:15:34;;;;;;;2.33;1.35;;;17.60;82.40;;;;;;5075223;28;20176;-74
2022/06/26 06:18:00;;;;;;;2.08;1.33;;;17.60;82.20;;;;;;5075021;28;20044;-73
2022/06/26 06:20:26;;;;;;;1.95;1.30;;;17.60;82.10;;;;;;5093297;28;20122;-73
2022/06/26 06:23:02;;;;;;;3.10;1.70;;;17.70;82.20;;;;;;5058526;28;21258;-74
2022/06/26 06:25:32;;;;;;;2.50;1.67;;;17.70;82.20;;;;;;5043039;28;20085;-74
2022/06/26 06:27:58;;;;;;;3.35;1.50;;;17.70;81.90;;;;;;5093981;28;20042;-74
2022/06/26 06:30:24;;;;;;;1.75;1.20;;;17.80;81.90;;;;;;5093174;28;20075;-74
2022/06/26 06:32:51;;;;;;;1.63;1.30;;;17.80;81.70;;;;;;5093048;28;20067;-76
2022/06/26 06:35:17;;;;;;;2.10;1.50;;;18.00;81.70;;;;;;5058331;28;20048;-76
2022/06/26 06:37:44;;;;;;;1.95;1.30;;;18.00;81.50;;;;;;5058233;28;20509;-76
2022/06/26 06:40:11;;;;;;;1.85;1.38;;;18.00;81.40;;;;;;5093543;28;20044;-76
2022/06/26 06:42:37;;;;;;;2.17;1.35;;;18.20;81.20;;;;;;5093080;28;20044;-74
2022/06/26 06:45:04;;;;;;;2.03;1.58;;;18.20;80.90;;;;;;5075252;28;20035;-75
2022/06/26 06:47:30;;;;;;;2.83;1.60;;;18.30;80.60;;;;;;5058038;28;20096;-75
2022/06/26 06:49:56;;;;;;;1.65;1.38;;;18.40;80.60;;;;;;5075108;28;20122;-75
2022/06/26 06:52:22;;;;;;;1.23;1.00;;;18.50;80.60;;;;;;5092912;28;20047;-75
2022/06/26 06:54:47;;;;;;;2.63;1.40;;;18.70;80.30;;;;;;5092987;28;20490;-74
2022/06/26 06:57:13;;;;;;;2.05;1.20;;;18.80;79.90;;;;;;5093237;28;20048;-74
2022/06/26 06:59:39;;;;;;;1.27;1.13;;;18.80;79.70;;;;;;5074679;28;20044;-74
2022/06/26 07:02:05;;;;;;;1.88;1.20;;;18.90;79.60;;;;;;5092812;28;20031;-74
2022/06/26 07:04:30;;;;;;;1.58;1.17;;;18.90;79.50;;;;;;5093435;28;20048;-74
2022/06/26 07:06:56;;;;;;;1.70;1.23;;;19.00;79.70;;;;;;5093085;28;20135;-74
2022/06/26 07:09:22;;;;;;;2.45;1.20;;;19.10;79.60;;;;;;5092670;28;20054;-74
2022/06/26 07:11:48;;;;;;;1.00;0.90;;;19.20;79.20;;;;;;5092384;28;20085;-74
2022/06/26 07:14:14;;;;;;;1.00;0.90;;;19.30;79.10;;;;;;5074871;28;20040;-74
2022/06/26 07:16:40;;;;;;;1.58;0.90;;;19.50;79.00;;;;;;5074622;28;20123;-74
2022/06/26 07:19:06;;;;;;;1.25;0.98;;;19.50;78.70;;;;;;5092560;28;20047;-73
2022/06/26 07:21:32;;;;;;;1.38;1.00;;;19.60;78.80;;;;;;5092567;28;20059;-73
2022/06/26 07:23:58;;;;;;;0.80;0.80;;;19.60;78.80;;;;;;5092503;28;20032;-74
2022/06/26 07:26:24;;;;;;;1.23;0.80;;;19.70;78.60;;;;;;5092532;28;20055;-74
2022/06/26 07:28:50;;;;;;;1.10;1.00;;;19.90;78.40;;;;;;5074113;28;20033;-74
2022/06/26 07:31:16;;;;;;;0.70;0.70;;;20.10;78.20;;;;;;5092560;28;20048;-73
2022/06/26 07:36:23;;;;;;;0.70;0.70;;;20.40;77.50;;;;;;5092207;28;20104;-74
2022/06/26 07:38:49;;;;;;;1.63;0.95;;;20.50;77.40;;;;;;5092038;28;20044;-74
2022/06/26 07:41:15;;;;;;;1.13;1.02;;;20.60;77.40;;;;;;5092013;28;20052;-73
2022/06/26 07:43:40;;;;;;;1.20;1.10;;;20.70;77.20;;;;;;5092146;28;20084;-74
2022/06/26 07:46:06;;;;;;;0.70;0.70;;;20.80;76.80;;;;;;5091821;28;20543;-74
2022/06/26 07:48:33;;;;;;;1.13;0.70;;;21.00;76.60;;;;;;5091950;28;20042;-74
2022/06/26 07:50:59;;;;;;;0.82;0.80;;;21.10;76.40;;;;;;5091970;28;20188;-74
2022/06/26 07:53:24;;;;;;;0.75;0.70;;;21.20;76.20;;;;;;5074094;28;20040;-74
2022/06/26 07:55:51;;;;;;;0.73;0.70;;;21.20;76.10;;;;;;5074245;28;20071;-74
2022/06/26 07:58:16;;;;;;;1.10;0.70;;;21.40;76.30;;;;;;5073955;28;20048;-73
2022/06/26 08:00:42;;;;;;;1.35;0.90;;;21.50;76.10;;;;;;5074088;28;20048;-74
2022/06/26 08:03:10;;;;;;;0.47;0.43;;;21.60;75.70;;;;;;5092255;28;20398;-74
2022/06/26 08:05:37;;;;;;;0.80;0.80;;;21.70;75.40;;;;;;5091546;28;20040;-73
2022/06/26 08:08:04;;;;;;;0.98;0.80;;;21.70;75.50;;;;;;5073839;28;20059;-73
2022/06/26 08:10:30;;;;;;;0.60;0.60;;;21.50;75.80;;;;;;5073556;28;20490;-73
2022/06/26 08:12:55;;;;;;;0.60;0.60;;;21.60;76.10;;;;;;5092054;28;20131;-73
2022/06/26 08:15:22;;;;;;;0.75;0.68;;;21.50;76.20;;;;;;5091730;28;20064;-73
2022/06/26 08:17:48;;;;;;;0.60;0.60;;;21.50;76.20;;;;;;5091770;28;20493;-73
2022/06/26 08:20:16;;;;;;;0.73;0.65;;;21.40;76.30;;;;;;5091716;28;20048;-74
2022/06/26 08:22:42;;;;;;;0.60;0.60;;;21.30;76.30;;;;;;5092108;28;20511;-73
2022/06/26 08:25:09;;;;;;;0.90;0.68;;;21.20;76.50;;;;;;5091701;28;20047;-73
2022/06/26 08:27:35;;;;;;;0.60;0.60;;;21.20;76.70;;;;;;5091512;28;20051;-74
2022/06/26 08:30:01;;;;;;;0.82;0.82;;;21.10;76.70;;;;;;5091650;28;20040;-74
2022/06/26 08:32:26;;;;;;;1.90;0.80;;;21.20;76.70;;;;;;5091386;28;20072;-74
2022/06/26 08:34:52;;;;;;;0.70;0.70;;;21.00;76.70;;;;;;5073474;28;20060;-73
2022/06/26 08:37:18;;;;;;;0.75;0.75;;;20.90;76.80;;;;;;5091336;28;20397;-74
2022/06/26 08:39:44;;;;;;;1.92;0.73;;;20.90;77.00;;;;;;5091488;28;20122;-73
2022/06/26 08:42:10;;;;;;;0.50;0.50;;;21.00;77.00;;;;;;5075022;28;20387;-73
2022/06/26 08:44:42;;;;;;;0.70;0.60;;;21.00;76.70;;;;;;5060203;28;20414;-73
2022/06/26 08:47:09;;;;;;;1.20;0.80;;;21.00;76.30;;;;;;5076579;28;20401;-74
2022/06/26 08:49:35;;;;;;;1.30;0.75;;;20.90;76.30;;;;;;5094667;28;20478;-74
2022/06/26 08:52:02;;;;;;;0.70;0.70;;;20.90;76.50;;;;;;5094817;28;20111;-73
2022/06/26 08:54:29;;;;;;;0.80;0.70;;;21.00;76.50;;;;;;5094635;28;20036;-73
2022/06/26 08:56:56;;;;;;;1.10;0.68;;;20.90;76.30;;;;;;5094480;28;20048;-73
2022/06/26 08:59:21;;;;;;;0.70;0.70;;;20.90;76.30;;;;;;5076566;28;20509;-73
2022/06/26 09:01:48;;;;;;;1.17;0.65;;;20.90;76.40;;;;;;5094557;28;20040;-73
2022/06/26 09:04:14;;;;;;;0.50;0.50;;;20.90;76.50;;;;;;5094413;28;20117;-73
2022/06/26 09:06:42;;;;;;;0.55;0.47;;;21.00;76.50;;;;;;5094792;28;20044;-73
2022/06/26 09:09:24;;;;;;;0.63;0.50;;;21.00;76.20;;;;;;5094755;28;20130;-73
2022/06/26 09:11:52;;;;;;;0.77;0.63;;;21.10;75.90;;;;;;5076259;28;20044;-73
2022/06/26 09:14:19;;;;;;;0.70;0.70;;;21.10;75.90;;;;;;5076247;28;20043;-73
2022/06/26 09:16:48;;;;;;;1.08;0.80;;;21.10;75.60;;;;;;5094345;28;20044;-73
2022/06/26 09:19:19;;;;;;;0.60;0.60;;;21.10;75.40;;;;;;5094799;28;20146;-73
2022/06/26 09:21:46;;;;;;;0.50;0.50;;;21.10;75.50;;;;;;5094109;28;20043;-73
2022/06/26 09:24:13;;;;;;;0.90;0.70;;;21.10;75.50;;;;;;5094747;28;20067;-73
2022/06/26 09:26:41;;;;;;;0.90;0.77;;;21.00;75.30;;;;;;5094631;28;20119;-73
2022/06/26 09:29:10;;;;;;;0.75;0.70;;;21.00;75.40;;;;;;5093869;28;20052;-74
2022/06/26 09:31:37;;;;;;;0.70;0.70;;;21.00;75.50;;;;;;5094458;28;20540;-73
2022/06/26 09:34:04;;;;;;;1.08;0.90;;;21.10;75.50;;;;;;5075791;28;20489;-73
2022/06/26 09:36:31;;;;;;;0.73;0.60;;;21.10;75.30;;;;;;5094189;28;20062;-73
2022/06/26 09:38:56;;;;;;;0.98;0.70;;;21.10;75.10;;;;;;5093935;28;20054;-73
2022/06/26 09:41:32;;;;;;;0.50;0.50;;;21.20;75.00;;;;;;5094167;28;20043;-73
2022/06/26 09:43:58;;;;;;;0.50;0.50;;;21.20;74.80;;;;;;5094277;28;20127;-73
2022/06/26 09:46:30;;;;;;;1.83;0.50;;;21.30;74.70;;;;;;5075068;28;20044;-73
2022/06/26 09:48:57;;;;;;;1.27;0.82;;;21.30;74.50;;;;;;5075494;28;20043;-73
2022/06/26 09:51:24;;;;;;;1.50;0.80;;;21.30;74.40;;;;;;5075492;28;20040;-74
2022/06/26 09:53:51;;;;;;;0.68;0.65;;;21.20;74.40;;;;;;5093306;28;20040;-73
2022/06/26 09:56:17;;;;;;;0.88;0.77;;;21.10;74.40;;;;;;5094258;28;20119;-73
2022/06/26 09:58:43;;;;;;;0.75;0.70;;;21.10;74.60;;;;;;5075473;28;20585;-73
2022/06/26 10:06:37;;;;;;;0.68;0.68;;;21.00;74.70;;;;;;5093461;28;20089;-73
2022/06/26 10:09:06;;;;;;;0.55;0.55;;;21.10;74.50;;;;;;5093719;28;20043;-73
2022/06/26 10:11:34;;;;;;;1.02;0.63;;;21.10;74.40;;;;;;5093565;28;20048;-73
2022/06/26 10:14:23;;;;;;;0.50;0.50;;;21.10;74.20;;;;;;5093805;28;20056;-73
2022/06/26 10:17:16;;;;;;;0.85;0.63;;;21.20;74.00;;;;;;5093276;28;20085;-73
2022/06/26 10:19:46;;;;;;;0.60;0.60;;;21.30;73.90;;;;;;5078504;28;20482;-73
2022/06/26 10:22:13;;;;;;;0.80;0.52;;;21.40;73.80;;;;;;5093337;28;20040;-73
2022/06/26 10:24:57;;;;;;;1.30;0.82;;;21.40;74.10;;;;;;5093269;28;20036;-73
2022/06/26 10:27:29;;;;;;;1.02;0.60;;;21.40;73.40;;;;;;5091531;28;20048;-73
2022/06/26 10:30:10;;;;;;;0.60;0.60;;;21.40;73.50;;;;;;5075407;28;20036;-73
2022/06/26 10:32:35;;;;;;;0.75;0.70;;;21.30;73.60;;;;;;5093092;28;20047;-73
2022/06/26 10:35:03;;;;;;;1.25;0.80;;;21.30;73.80;;;;;;5074928;28;20040;-73
2022/06/26 10:37:42;;;;;;;0.73;0.70;;;21.30;73.70;;;;;;5093024;28;20051;-72
2022/06/26 10:42:52;;;;;;;0.90;0.70;;;21.20;73.70;;;;;;5090987;28;20071;-71
2022/06/26 10:43:00;;;;;;;0.50;0.50;;;21.30;73.80;;;;;;5092236;28;20402;-73
2022/06/26 10:45:37;;;;;;;0.50;0.50;;;21.30;73.70;;;;;;5092856;28;20135;-72
2022/06/26 10:48:28;;;;;;;1.10;0.90;;;21.30;73.50;;;;;;5092996;28;20413;-72
2022/06/26 10:54:41;;;;;;;1.58;0.98;;;21.30;73.40;;;;;;5013973;28;20073;-72
2022/06/26 10:57:15;;;;;;;1.55;0.90;;;21.30;73.40;;;;;;4994262;28;20045;-72
2022/06/26 10:59:42;;;;;;;0.75;0.70;;;21.30;73.30;;;;;;5010619;28;20038;-72
2022/06/26 11:02:10;;;;;;;0.98;0.70;;;21.30;73.20;;;;;;5010950;28;20127;-72
2022/06/26 11:04:44;;;;;;;0.73;0.68;;;21.50;73.00;;;;;;5010282;28;20048;-72
2022/06/26 11:07:13;;;;;;;0.50;0.50;;;21.50;72.50;;;;;;5010362;28;20053;-72
2022/06/26 11:09:38;;;;;;;0.70;0.68;;;21.60;72.60;;;;;;5010824;28;20112;-72
2022/06/26 11:12:04;;;;;;;0.80;0.80;;;21.70;72.40;;;;;;4994183;28;20173;-73
2022/06/26 11:14:31;;;;;;;1.08;0.70;;;21.80;72.10;;;;;;5011051;28;20034;-73
2022/06/26 11:16:56;;;;;;;1.17;0.75;;;21.70;72.10;;;;;;4994273;28;20044;-73
2022/06/26 11:19:28;;;;;;;0.93;0.82;;;21.60;72.40;;;;;;5010370;28;20125;-73
2022/06/26 11:22:11;;;;;;;1.90;1.00;;;21.50;72.40;;;;;;4994007;28;20046;-73
2022/06/26 11:24:48;;;;;;;0.90;0.80;;;21.50;72.30;;;;;;4994368;28;20077;-73
2022/06/26 11:27:14;;;;;;;1.17;0.70;;;21.50;72.50;;;;;;4994048;28;20057;-73
2022/06/26 11:29:40;;;;;;;0.73;0.68;;;21.40;72.50;;;;;;5010477;28;20042;-73
2022/06/26 11:32:07;;;;;;;0.50;0.50;;;21.50;72.50;;;;;;5079292;28;20051;-73
2022/06/26 11:34:33;;;;;;;0.60;0.60;;;21.50;72.30;;;;;;5074043;28;20035;-73
2022/06/26 11:37:00;;;;;;;1.05;0.80;;;21.50;72.20;;;;;;5092397;28;20127;-73
2022/06/26 11:39:42;;;;;;;1.33;0.80;;;21.50;72.20;;;;;;5092602;28;20036;-73
2022/06/26 11:42:17;;;;;;;0.70;0.70;;;21.60;72.10;;;;;;5091957;28;20518;-73
2022/06/26 11:44:47;;;;;;;0.82;0.70;;;21.60;72.10;;;;;;5092757;28;20097;-73
2022/06/26 11:47:13;;;;;;;0.85;0.63;;;21.60;72.00;;;;;;5092501;28;20136;-73
2022/06/26 11:49:38;;;;;;;0.65;0.57;;;21.60;72.10;;;;;;5092405;28;20044;-73
2022/06/26 11:52:06;;;;;;;0.68;0.57;;;21.70;72.30;;;;;;5091975;28;20097;-73
2022/06/26 11:54:32;;;;;;;0.73;0.60;;;21.70;72.30;;;;;;5091837;28;20036;-73
2022/06/26 11:57:03;;;;;;;0.50;0.50;;;21.70;72.30;;;;;;5074419;28;20039;-73
2022/06/26 11:59:29;;;;;;;0.63;0.60;;;21.70;72.10;;;;;;5092255;28;20123;-73
2022/06/26 12:01:55;;;;;;;0.57;0.55;;;21.70;72.20;;;;;;5074021;28;20123;-73
2022/06/26 12:04:20;;;;;;;0.45;0.45;;;21.70;72.20;;;;;;5092069;28;20074;-73
2022/06/26 12:06:52;;;;;;;1.20;0.80;;;21.80;72.20;;;;;;5092399;28;20416;-73
2022/06/26 12:09:21;;;;;;;1.25;0.70;;;21.70;72.20;;;;;;5091887;28;20028;-73
2022/06/26 12:11:49;;;;;;;1.13;0.73;;;21.60;72.40;;;;;;5091607;28;20386;-73
2022/06/26 12:14:19;;;;;;;0.60;0.60;;;21.50;72.70;;;;;;5091680;28;20036;-73
2022/06/26 12:16:54;;;;;;;0.70;0.70;;;21.40;72.90;;;;;;5057809;28;20044;-73
2022/06/26 12:19:20;;;;;;;1.35;0.70;;;21.40;73.00;;;;;;5094583;28;20087;-73
2022/06/26 12:21:48;;;;;;;0.50;0.50;;;21.30;73.00;;;;;;5095170;28;20074;-73
2022/06/26 12:24:15;;;;;;;0.77;0.60;;;21.30;73.10;;;;;;5095516;28;20085;-72
2022/06/26 12:26:42;;;;;;;0.40;0.40;;;21.40;73.10;;;;;;5095951;28;20070;-73
2022/06/26 12:29:11;;;;;;;1.52;0.80;;;21.40;72.90;;;;;;5095303;28;20039;-73
2022/06/26 12:31:37;;;;;;;1.65;0.80;;;21.40;72.80;;;;;;5095193;28;20040;-73
2022/06/26 12:34:04;;;;;;;0.82;0.82;;;21.20;72.90;;;;;;5095131;28;20051;-73
2022/06/26 12:36:31;;;;;;;0.63;0.63;;;21.00;73.10;;;;;;5060526;28;20044;-72
2022/06/26 12:38:57;;;;;;;0.70;0.70;;;20.90;73.30;;;;;;5094950;28;20072;-72
2022/06/26 12:41:22;;;;;;;1.30;0.70;;;20.90;74.20;;;;;;5076998;28;20040;-72
2022/06/26 12:43:51;;;;;;;0.88;0.80;;;20.90;73.60;;;;;;5095482;28;20551;-72
2022/06/26 12:46:17;;;;;;;0.52;0.52;;;20.80;73.60;;;;;;5093067;28;20040;-72
2022/06/26 12:48:43;;;;;;;0.68;0.65;;;20.80;73.50;;;;;;5095356;28;20525;-72
2022/06/26 12:51:09;;;;;;;0.80;0.73;;;20.70;73.50;;;;;;5095366;28;20040;-73
2022/06/26 12:53:36;;;;;;;0.63;0.60;;;20.70;73.60;;;;;;5076855;28;20036;-72
2022/06/26 12:56:01;;;;;;;0.73;0.50;;;20.70;73.60;;;;;;5076741;28;20039;-72
2022/06/26 12:58:27;;;;;;;2.58;0.80;;;20.70;73.70;;;;;;5094547;28;20024;-72
2022/06/26 13:00:54;;;;;;;0.50;0.50;;;20.60;73.50;;;;;;5094855;28;20044;-72
2022/06/26 13:03:21;;;;;;;0.88;0.52;;;20.60;73.50;;;;;;5095378;28;20482;-72